LSZCLIMJ

Guest
Details From LSZC - Buochs
To LIMJ - Genova Sestri
Flight Number -
Tags generated
Created
Modified
Stats Distance 155 nm / 287 km
Max Altitude 17,400 ft / 5,304 m
Waypoints 3
Social Downloads 0
Likes 0
Share VATSIM

Download

Looking for another format? Having issues loading an existing format? Contact us
Advertisement - Login to hide

Notes

Basic altitude profile: - Ascent Rate: 2500ft/min - Ascent Speed: 250kts - Cruise Altitude: 35000ft - Cruise Speed: 420kts - Descent Rate: 1500ft/min - Descent Speed: 250kts Options: - Use NATs: yes - Use PACOTS: yes - Use low airways: yes - Use high airways: no

Route

LSZC IXORA LIMJ

ID Type Via Altitude Latitude Longitude Leg Dist Tot Dist Heading (true) Name
O LSZC APT - 0 ft / 0 m 46.97319˚ 8.39736˚ - 0 nm - Buochs
IXORA FIX - 17,400 ft / 5,304 m 45.83667˚ 8.58889˚ 68 nm 68 nm 173° / 173° -
O LIMJ APT - 0 ft / 0 m 44.41196˚ 8.84187˚ 86 nm 154 nm 173° / 173° Genova Sestri

Altitude Profile

Advertisement - Login to hide

LSZC

Details ICAO LSZC (BXO)
Name Buochs
Region Switzerland
Timezone Europe/Zurich (UTC+1.0)
Stats Elevation 1,475 ft / 450 m (AMSL)
Location 46.973188° 8.397360°
Runways 2
Magnetic Variation 2.305° E

METAR

LSZC 120820Z 35009KT 320V040 7000 -RASN OVC025 03/M00 Q1009

Decode

TAF

Not found

Departure Runways

ID Width Length Bearing (true) Bearing (mag) Surface Threshold Offset Overrun Length
07L 131 ft / 40 m 6,570 ft / 2,002 m 64.09° 61.78° Asphalt 0 ft / 0 m 650 ft / 198 m
07R 131 ft / 40 m 4,827 ft / 1,471 m 64.00° 61.69° Asphalt 0 ft / 0 m 1,161 ft / 354 m
25L 131 ft / 40 m 4,827 ft / 1,471 m 244.02° 241.71° Asphalt 0 ft / 0 m 1,161 ft / 354 m
25R 131 ft / 40 m 6,570 ft / 2,002 m 244.11° 241.80° Asphalt 0 ft / 0 m 650 ft / 198 m

LIMJ

Details ICAO LIMJ (GOA)
Name Genova Sestri
Region Italy
Timezone Unknown (UTC+0.0)
Stats Elevation 13 ft / 4 m (AMSL)
Location 44.411957° 8.841866°
Runways 1
Magnetic Variation 2.387° E

METAR

LIMJ 120820Z 20006KT 150V220 9999 BKN025 13/09 Q1008

Decode

TAF

TAF LIMJ 120500Z 1206/1306 21010G25KT 9999 SCT020 BKN040 BECMG 1214/1216 VRB06KT

Decode

Destination Runways

ID Width Length Bearing (true) Bearing (mag) Surface Threshold Offset Overrun Length
10 148 ft / 45 m 9,574 ft / 2,918 m 105.39° 103.00° Asphalt 0 ft / 0 m 0 ft / 0 m
28 148 ft / 45 m 9,574 ft / 2,918 m 285.41° 283.02° Asphalt 538 ft / 164 m 0 ft / 0 m

Approach Navaids

Runway Type Ident Frequency Range Bearing (true) Bearing (mag) Slope Elevation
28 Localiser GSE 109.30 MHz 18 nm / 33 km 287.30° 284.92° - 9 ft / 3 m (AMSL)
28 Glidescope GSE 109.30 MHz 10 nm / 19 km 287.30° 284.92° 3.17° 26 ft / 8 m (AMSL)
28 DME GSE 109.30 MHz 18 nm / 33 km - - - 26 ft / 8 m (AMSL)